Time;durP1;ratioP1;P1;durP2;ratioP2;P2;SDS_P1;SDS_P2;PMS_P1;PMS_P2;Temp;Humidity;BMP_temperature;BMP_pressure;BME280_temperature;BME280_humidity;BME280_pressure;Samples;Min_cycle;Max_cycle;Signal;HPM_P1;HPM_P2
2023/05/29 00:00:08;;;;;;;15.27;2.60;;;;;;;;;;4949242;28;20102;-74
2023/05/29 00:02:37;;;;;;;13.13;2.15;;;;;;;;;;4944888;28;20035;-74
2023/05/29 00:05:03;;;;;;;25.88;4.90;;;;;;;;;;4944512;28;20146;-73
2023/05/29 00:07:30;;;;;;;15.65;2.85;;;;;;;;;;4956166;28;20032;-74
2023/05/29 00:09:56;;;;;;;18.95;3.10;;;;;;;;;;4951044;28;20135;-74
2023/05/29 00:12:22;;;;;;;14.68;2.47;;;;;;;;;;4942679;28;20035;-74
2023/05/29 00:14:49;;;;;;;23.67;2.88;;;;;;;;;;4946303;28;20035;-74
2023/05/29 00:17:15;;;;;;;15.70;2.90;;;;;;;;;;4948260;28;20058;-74
2023/05/29 00:19:42;;;;;;;22.45;2.75;;;;;;;;;;4945176;28;20027;-74
2023/05/29 00:22:08;;;;;;;23.67;4.07;;;;;;;;;;4942754;28;20099;-74
2023/05/29 00:24:34;;;;;;;20.17;2.67;;;;;;;;;;4946565;28;20031;-74
2023/05/29 00:27:01;;;;;;;17.50;2.90;;;;;;;;;;4943171;28;20106;-74
2023/05/29 00:29:27;;;;;;;13.30;2.60;;;;;;;;;;4945828;28;21202;-74
2023/05/29 00:31:53;;;;;;;16.35;2.38;;;;;;;;;;4944885;28;22822;-73
2023/05/29 00:34:20;;;;;;;11.02;3.13;;;;;;;;;;4939795;28;20096;-73
2023/05/29 00:36:46;;;;;;;23.83;3.92;;;;;;;;;;4948823;28;20118;-76
2023/05/29 00:39:12;;;;;;;13.90;2.55;;;;;;;;;;4947731;28;20030;-74
2023/05/29 00:41:38;;;;;;;19.35;3.92;;;;;;;;;;4945343;28;20036;-73
2023/05/29 00:44:04;;;;;;;17.73;2.38;;;;;;;;;;4946191;28;20532;-74
2023/05/29 00:46:30;;;;;;;18.92;2.38;;;;;;;;;;4944316;28;20071;-73
2023/05/29 00:48:57;;;;;;;14.73;2.80;;;;;;;;;;4948077;28;20039;-73
2023/05/29 00:51:24;;;;;;;14.73;2.50;;;;;;;;;;4942417;28;20032;-73
2023/05/29 00:53:51;;;;;;;13.55;2.88;;;;;;;;;;4946615;28;20090;-73
2023/05/29 00:56:17;;;;;;;23.40;4.22;;;;;;;;;;4943222;28;20070;-74
2023/05/29 00:58:43;;;;;;;18.67;3.50;;;;;;;;;;4943300;28;20039;-73
2023/05/29 01:01:10;;;;;;;16.23;2.85;;;;;;;;;;4941211;28;20118;-73
2023/05/29 01:03:37;;;;;;;15.55;2.72;;;;;;;;;;4945995;28;20381;-73
2023/05/29 01:06:03;;;;;;;22.50;2.90;;;;;;;;;;4945793;28;20058;-73
2023/05/29 01:08:29;;;;;;;14.73;2.33;;;;;;;;;;4959696;28;20031;-73
2023/05/29 01:11:00;;;;;;;18.95;4.18;;;;;;;;;;4937294;28;20047;-73
2023/05/29 01:13:28;;;;;;;15.82;2.75;;;;;;;;;;4942881;28;20296;-73
2023/05/29 01:16:00;;;;;;;16.65;4.75;;;;;;;;;;4950006;28;20426;-72
2023/05/29 01:18:41;;;;;;;12.68;2.35;;;;;;;;;;4942163;28;20161;-72
2023/05/29 01:21:12;;;;;;;17.27;3.45;;;;;;;;;;4943625;28;20016;-73
2023/05/29 01:23:38;;;;;;;23.55;2.90;;;;;;;;;;4954638;28;20090;-74
2023/05/29 01:26:36;;;;;;;10.45;2.17;;;;;;;;;;4942373;28;20567;-73
2023/05/29 01:29:04;;;;;;;15.55;2.10;;;;;;;;;;4915478;28;20063;-72
2023/05/29 01:31:30;;;;;;;17.77;2.60;;;;;;;;;;4953910;28;20430;-72
2023/05/29 01:33:58;;;;;;;15.55;3.50;;;;;;;;;;4947677;28;20027;-72
2023/05/29 01:36:24;;;;;;;15.35;3.70;;;;;;;;;;4942055;28;20095;-72
2023/05/29 01:38:52;;;;;;;14.60;2.70;;;;;;;;;;4944797;28;20043;-73
2023/05/29 01:41:18;;;;;;;17.42;2.90;;;;;;;;;;4940069;28;20481;-73
2023/05/29 01:43:46;;;;;;;18.70;3.15;;;;;;;;;;4943364;28;20524;-73
2023/05/29 01:46:13;;;;;;;17.77;3.17;;;;;;;;;;4946610;28;20027;-73
2023/05/29 01:48:39;;;;;;;14.75;2.47;;;;;;;;;;4943747;28;20102;-72
2023/05/29 01:51:05;;;;;;;21.88;3.05;;;;;;;;;;4945859;28;20038;-73
2023/05/29 01:53:31;;;;;;;12.85;2.42;;;;;;;;;;4940742;28;20443;-73
2023/05/29 01:55:57;;;;;;;18.38;2.65;;;;;;;;;;4944082;28;20115;-73
2023/05/29 01:58:23;;;;;;;12.27;2.55;;;;;;;;;;4943085;28;20389;-73
2023/05/29 02:00:50;;;;;;;13.23;2.13;;;;;;;;;;4942295;28;20100;-73
2023/05/29 02:03:16;;;;;;;15.68;3.47;;;;;;;;;;4939463;28;20079;-74
2023/05/29 02:05:42;;;;;;;14.32;2.10;;;;;;;;;;4940483;28;20059;-74
2023/05/29 02:08:08;;;;;;;24.02;3.67;;;;;;;;;;4943053;28;20045;-74
2023/05/29 02:10:34;;;;;;;19.10;2.78;;;;;;;;;;4942026;28;20046;-74
2023/05/29 02:13:00;;;;;;;13.35;2.92;;;;;;;;;;4939843;28;20034;-74
2023/05/29 02:15:26;;;;;;;15.18;5.30;;;;;;;;;;4942139;28;20031;-74
2023/05/29 02:17:52;;;;;;;14.48;2.58;;;;;;;;;;4942937;28;20038;-74
2023/05/29 02:20:18;;;;;;;16.58;3.50;;;;;;;;;;4955062;28;20725;-74
2023/05/29 02:22:45;;;;;;;17.77;2.85;;;;;;;;;;4941973;28;20082;-74
2023/05/29 02:25:11;;;;;;;14.82;2.25;;;;;;;;;;4942465;28;20125;-73
2023/05/29 02:27:37;;;;;;;21.65;3.83;;;;;;;;;;4939470;28;20027;-73
2023/05/29 02:30:05;;;;;;;24.10;3.75;;;;;;;;;;4940219;28;20481;-74
2023/05/29 02:32:31;;;;;;;22.02;3.15;;;;;;;;;;4943427;28;20537;-73
2023/05/29 02:34:57;;;;;;;23.77;3.45;;;;;;;;;;4942882;28;20034;-73
2023/05/29 02:37:25;;;;;;;14.98;2.60;;;;;;;;;;4943887;28;20067;-73
2023/05/29 02:39:51;;;;;;;20.77;3.15;;;;;;;;;;4941761;28;20031;-73
2023/05/29 02:42:17;;;;;;;17.27;3.53;;;;;;;;;;4939480;28;20036;-73
2023/05/29 02:44:43;;;;;;;20.85;2.90;;;;;;;;;;4944018;28;20118;-73
2023/05/29 02:47:10;;;;;;;21.40;3.95;;;;;;;;;;4942418;28;20518;-74
2023/05/29 02:49:36;;;;;;;13.90;2.25;;;;;;;;;;4941997;28;20068;-73
2023/05/29 02:52:02;;;;;;;15.32;2.33;;;;;;;;;;4938297;28;20035;-73
2023/05/29 02:54:28;;;;;;;13.82;2.35;;;;;;;;;;4941289;28;20042;-73
2023/05/29 02:56:54;;;;;;;22.83;4.20;;;;;;;;;;4938913;28;20024;-73
2023/05/29 02:59:20;;;;;;;16.92;3.17;;;;;;;;;;4940760;28;20036;-73
2023/05/29 03:01:47;;;;;;;15.52;3.05;;;;;;;;;;4939512;28;20054;-73
2023/05/29 03:04:14;;;;;;;17.15;4.13;;;;;;;;;;4939549;28;20043;-74
2023/05/29 03:06:40;;;;;;;21.73;3.15;;;;;;;;;;4939686;28;20062;-73
2023/05/29 03:09:06;;;;;;;13.50;3.40;;;;;;;;;;4941777;28;20047;-74
2023/05/29 03:11:33;;;;;;;16.55;2.97;;;;;;;;;;4937670;28;20031;-74
2023/05/29 03:13:59;;;;;;;16.67;3.38;;;;;;;;;;4943017;28;20561;-73
2023/05/29 03:16:29;;;;;;;18.58;3.20;;;;;;;;;;4940825;28;20042;-73
2023/05/29 03:18:55;;;;;;;22.27;3.22;;;;;;;;;;4938281;28;20035;-74
2023/05/29 03:21:21;;;;;;;22.27;2.90;;;;;;;;;;4942100;28;20078;-73
2023/05/29 03:23:47;;;;;;;14.05;2.95;;;;;;;;;;4942681;28;20031;-73
2023/05/29 03:26:13;;;;;;;14.20;2.47;;;;;;;;;;4942757;28;20046;-73
2023/05/29 03:28:39;;;;;;;25.70;4.03;;;;;;;;;;4942164;28;20039;-72
2023/05/29 03:31:05;;;;;;;16.30;3.17;;;;;;;;;;4947875;28;20062;-73
2023/05/29 03:33:31;;;;;;;21.05;2.92;;;;;;;;;;4943380;28;20489;-73
2023/05/29 03:35:57;;;;;;;17.73;3.15;;;;;;;;;;4945185;28;20311;-73
2023/05/29 03:38:24;;;;;;;11.70;2.45;;;;;;;;;;4943204;28;20055;-73
2023/05/29 03:40:50;;;;;;;18.40;3.33;;;;;;;;;;4943556;28;20031;-73
2023/05/29 03:43:16;;;;;;;16.70;2.70;;;;;;;;;;4945731;28;20133;-74
2023/05/29 03:45:42;;;;;;;16.70;3.20;;;;;;;;;;4948545;28;20091;-73
2023/05/29 03:48:08;;;;;;;15.15;2.92;;;;;;;;;;4943850;28;20036;-73
2023/05/29 03:50:34;;;;;;;15.40;2.47;;;;;;;;;;4944480;28;20023;-73
2023/05/29 03:53:00;;;;;;;12.23;2.78;;;;;;;;;;4957527;28;20114;-73
2023/05/29 03:55:26;;;;;;;15.52;3.53;;;;;;;;;;4946069;28;20531;-73
2023/05/29 03:57:52;;;;;;;18.42;3.17;;;;;;;;;;4942703;28;20512;-73
2023/05/29 04:00:18;;;;;;;12.70;2.47;;;;;;;;;;4944726;28;20047;-73
2023/05/29 04:02:44;;;;;;;17.30;3.38;;;;;;;;;;4947324;28;20473;-74
2023/05/29 04:05:12;;;;;;;15.73;2.78;;;;;;;;;;4942311;28;20047;-74
2023/05/29 04:07:38;;;;;;;10.32;3.25;;;;;;;;;;4942071;28;20028;-73
2023/05/29 04:10:05;;;;;;;16.35;3.25;;;;;;;;;;4941868;28;20429;-74
2023/05/29 04:12:31;;;;;;;13.45;2.72;;;;;;;;;;4939231;28;20114;-74
2023/05/29 04:14:57;;;;;;;13.27;2.28;;;;;;;;;;4945177;28;20059;-73
2023/05/29 04:17:23;;;;;;;20.65;2.83;;;;;;;;;;4947529;28;20039;-73
2023/05/29 04:19:49;;;;;;;16.67;2.72;;;;;;;;;;4939567;28;20043;-73
2023/05/29 04:22:15;;;;;;;11.90;3.05;;;;;;;;;;4941189;28;20051;-73
2023/05/29 04:24:41;;;;;;;15.43;2.55;;;;;;;;;;4946270;28;20477;-73
2023/05/29 04:27:08;;;;;;;15.38;2.75;;;;;;;;;;4945408;28;20094;-73
2023/05/29 04:29:35;;;;;;;17.52;2.55;;;;;;;;;;4943851;28;20063;-73
2023/05/29 04:32:04;;;;;;;19.92;2.67;;;;;;;;;;4945797;28;20043;-73
2023/05/29 04:34:30;;;;;;;13.13;2.05;;;;;;;;;;4936850;28;20026;-74
2023/05/29 04:36:58;;;;;;;17.90;2.50;;;;;;;;;;4950765;28;20043;-73
2023/05/29 04:39:24;;;;;;;13.50;2.80;;;;;;;;;;4954301;28;20058;-73
2023/05/29 04:41:51;;;;;;;16.77;2.20;;;;;;;;;;4944889;28;20047;-73
2023/05/29 04:44:17;;;;;;;15.63;3.05;;;;;;;;;;4941322;28;20109;-73
2023/05/29 04:46:44;;;;;;;20.13;5.43;;;;;;;;;;4931142;28;20481;-73
2023/05/29 04:49:10;;;;;;;11.40;2.85;;;;;;;;;;4942006;28;20071;-73
2023/05/29 04:51:36;;;;;;;10.73;2.22;;;;;;;;;;4951948;28;20114;-73
2023/05/29 04:54:02;;;;;;;14.18;2.20;;;;;;;;;;4949303;28;20547;-72
2023/05/29 04:56:28;;;;;;;14.40;2.50;;;;;;;;;;4943092;28;20031;-71
2023/05/29 04:58:54;;;;;;;12.32;2.53;;;;;;;;;;4939522;28;20374;-72
2023/05/29 05:01:21;;;;;;;18.63;2.90;;;;;;;;;;4945428;28;20032;-73
2023/05/29 05:03:47;;;;;;;14.13;2.67;;;;;;;;;;4941848;28;20043;-72
2023/05/29 05:06:16;;;;;;;13.90;2.63;;;;;;;;;;4939236;28;20090;-72
2023/05/29 05:08:42;;;;;;;16.95;2.50;;;;;;;;;;4949560;29;20028;-72
2023/05/29 05:11:08;;;;;;;15.23;3.63;;;;;;;;;;4968480;28;20038;-75
2023/05/29 05:13:34;;;;;;;32.45;10.70;;;;;;;;;;4948565;28;20062;-74
2023/05/29 05:16:01;;;;;;;16.63;3.63;;;;;;;;;;4942426;28;20039;-74
2023/05/29 05:18:27;;;;;;;10.38;2.33;;;;;;;;;;4950180;28;20031;-74
2023/05/29 05:20:53;;;;;;;14.35;2.30;;;;;;;;;;4952163;28;20069;-73
2023/05/29 05:23:19;;;;;;;10.75;2.67;;;;;;;;;;4955519;28;20134;-74
2023/05/29 05:25:45;;;;;;;15.02;3.00;;;;;;;;;;4943082;28;20046;-72
2023/05/29 05:28:11;;;;;;;22.83;3.33;;;;;;;;;;4944755;28;20042;-73
2023/05/29 05:30:37;;;;;;;20.35;3.63;;;;;;;;;;4943675;28;20114;-73
2023/05/29 05:33:03;;;;;;;19.40;3.70;;;;;;;;;;4942369;28;20046;-73
2023/05/29 05:35:29;;;;;;;17.20;2.75;;;;;;;;;;4941831;28;20035;-73
2023/05/29 05:37:57;;;;;;;22.88;2.90;;;;;;;;;;4951204;29;20051;-73
2023/05/29 05:40:24;;;;;;;12.88;2.78;;;;;;;;;;4949342;28;20167;-73
2023/05/29 05:42:50;;;;;;;15.88;2.08;;;;;;;;;;4948572;28;20542;-75
2023/05/29 05:45:16;;;;;;;31.50;11.77;;;;;;;;;;4941843;28;20469;-74
2023/05/29 05:47:42;;;;;;;23.02;6.80;;;;;;;;;;4944477;28;20155;-75
2023/05/29 05:50:08;;;;;;;21.63;3.50;;;;;;;;;;4943317;28;20273;-72
2023/05/29 05:52:34;;;;;;;12.27;2.30;;;;;;;;;;4946624;28;20031;-74
2023/05/29 05:55:00;;;;;;;10.50;2.75;;;;;;;;;;4949191;28;20085;-74
2023/05/29 05:57:27;;;;;;;19.13;3.13;;;;;;;;;;4951149;29;20062;-73
2023/05/29 05:59:53;;;;;;;12.65;2.75;;;;;;;;;;4932328;29;20042;-73
2023/05/29 06:02:19;;;;;;;15.45;1.92;;;;;;;;;;4955415;28;20261;-74
2023/05/29 06:04:45;;;;;;;10.25;2.35;;;;;;;;;;4953109;29;20067;-73
2023/05/29 06:07:11;;;;;;;17.80;3.20;;;;;;;;;;4953248;28;20023;-74
2023/05/29 06:09:38;;;;;;;11.70;2.53;;;;;;;;;;4953979;29;20042;-73
2023/05/29 06:12:07;;;;;;;20.58;4.10;;;;;;;;;;4952432;29;20039;-73
2023/05/29 06:14:33;;;;;;;15.75;3.05;;;;;;;;;;4947304;28;20035;-73
2023/05/29 06:16:59;;;;;;;20.85;3.65;;;;;;;;;;4951801;29;20433;-73
2023/05/29 06:19:25;;;;;;;18.20;3.00;;;;;;;;;;4949993;28;20031;-72
2023/05/29 06:21:51;;;;;;;18.95;5.55;;;;;;;;;;4959878;28;20498;-74
2023/05/29 06:24:17;;;;;;;21.45;6.53;;;;;;;;;;4940863;28;20071;-74
2023/05/29 06:26:43;;;;;;;22.63;4.32;;;;;;;;;;4939355;28;20039;-74
2023/05/29 06:29:09;;;;;;;20.55;3.13;;;;;;;;;;4938708;28;20031;-74
2023/05/29 06:31:35;;;;;;;9.75;2.33;;;;;;;;;;4940518;28;20046;-74
2023/05/29 06:34:01;;;;;;;16.13;3.78;;;;;;;;;;4939355;28;20051;-74
2023/05/29 06:36:27;;;;;;;26.20;3.60;;;;;;;;;;4946588;28;20027;-74
2023/05/29 06:38:53;;;;;;;20.05;3.40;;;;;;;;;;4951476;29;20134;-74
2023/05/29 06:41:19;;;;;;;19.10;3.33;;;;;;;;;;4944091;28;20044;-75
2023/05/29 06:43:45;;;;;;;12.73;2.97;;;;;;;;;;4942646;28;20391;-75
2023/05/29 06:46:11;;;;;;;12.68;2.60;;;;;;;;;;4942998;28;20046;-75
2023/05/29 06:48:37;;;;;;;17.55;3.53;;;;;;;;;;4955365;28;20374;-74
2023/05/29 06:51:08;;;;;;;22.33;3.40;;;;;;;;;;4942080;28;20044;-74
2023/05/29 06:53:37;;;;;;;19.33;2.95;;;;;;;;;;4942136;28;20031;-73
2023/05/29 06:56:04;;;;;;;22.42;3.67;;;;;;;;;;4944427;28;20050;-74
2023/05/29 06:58:30;;;;;;;17.42;4.28;;;;;;;;;;4944403;28;20126;-74
2023/05/29 07:00:57;;;;;;;22.55;3.85;;;;;;;;;;4941492;28;20118;-75
2023/05/29 07:03:23;;;;;;;21.20;5.13;;;;;;;;;;4954468;28;20111;-76
2023/05/29 07:05:49;;;;;;;18.58;4.07;;;;;;;;;;4955202;28;20437;-75
2023/05/29 07:08:15;;;;;;;25.27;3.90;;;;;;;;;;4955987;28;20062;-75
2023/05/29 07:10:41;;;;;;;18.73;3.35;;;;;;;;;;4965037;28;20039;-74
2023/05/29 07:13:07;;;;;;;27.70;4.15;;;;;;;;;;4952703;28;20044;-74
2023/05/29 07:15:34;;;;;;;20.15;3.40;;;;;;;;;;4950263;28;20039;-74
2023/05/29 07:18:00;;;;;;;19.27;4.07;;;;;;;;;;4970619;28;20118;-76
2023/05/29 07:20:26;;;;;;;17.50;3.70;;;;;;;;;;4951678;28;20032;-74
2023/05/29 07:22:52;;;;;;;20.05;4.53;;;;;;;;;;4954511;28;20114;-73
2023/05/29 07:25:18;;;;;;;18.13;4.68;;;;;;;;;;4955992;28;20039;-74
2023/05/29 07:27:44;;;;;;;23.77;3.53;;;;;;;;;;4942314;28;20481;-74
2023/05/29 07:30:10;;;;;;;24.17;4.00;;;;;;;;;;4946526;28;20043;-74
2023/05/29 07:32:37;;;;;;;24.48;4.75;;;;;;;;;;4944424;28;20437;-74
2023/05/29 07:35:03;;;;;;;19.25;4.68;;;;;;;;;;4943819;28;20035;-73
2023/05/29 07:37:30;;;;;;;18.38;4.32;;;;;;;;;;4941250;28;20055;-73
2023/05/29 07:39:56;;;;;;;32.75;4.15;;;;;;;;;;4943160;28;20028;-73
2023/05/29 07:42:22;;;;;;;18.45;4.13;;;;;;;;;;4945849;28;20039;-74
2023/05/29 07:44:48;;;;;;;16.90;3.95;;;;;;;;;;4945668;28;20053;-73
2023/05/29 07:47:14;;;;;;;15.57;3.17;;;;;;;;;;4944501;28;20461;-74
2023/05/29 07:49:40;;;;;;;18.92;3.72;;;;;;;;;;4943301;28;20039;-73
2023/05/29 07:52:06;;;;;;;20.38;3.53;;;;;;;;;;4944158;28;20082;-73
2023/05/29 07:54:33;;;;;;;18.85;3.40;;;;;;;;;;4939745;28;20031;-74
2023/05/29 07:57:02;;;;;;;22.00;4.03;;;;;;;;;;4938266;28;20036;-74
2023/05/29 07:59:28;;;;;;;15.90;4.03;;;;;;;;;;4943630;28;20078;-73
2023/05/29 08:01:57;;;;;;;18.13;4.18;;;;;;;;;;4946147;28;20039;-73
2023/05/29 08:04:24;;;;;;;13.70;3.25;;;;;;;;;;4943746;28;21692;-73
2023/05/29 08:06:50;;;;;;;17.13;3.90;;;;;;;;;;4943754;28;20038;-74
2023/05/29 08:09:17;;;;;;;17.80;4.18;;;;;;;;;;4950897;28;20409;-75
2023/05/29 08:11:45;;;;;;;15.88;3.17;;;;;;;;;;4953382;29;20038;-74
2023/05/29 08:14:12;;;;;;;16.95;3.22;;;;;;;;;;4951726;28;20062;-74
2023/05/29 08:16:38;;;;;;;19.10;3.85;;;;;;;;;;4953609;28;20039;-74
2023/05/29 08:19:04;;;;;;;18.02;3.55;;;;;;;;;;4951629;28;20030;-74
2023/05/29 08:21:31;;;;;;;19.98;3.78;;;;;;;;;;4945205;28;20091;-74
2023/05/29 08:23:57;;;;;;;15.85;4.32;;;;;;;;;;4943944;28;20027;-74
2023/05/29 08:26:23;;;;;;;17.20;3.35;;;;;;;;;;4942202;28;20393;-74
2023/05/29 08:28:50;;;;;;;22.55;3.95;;;;;;;;;;4945412;28;20027;-74
2023/05/29 08:31:16;;;;;;;23.80;4.75;;;;;;;;;;4943196;28;20335;-74
2023/05/29 08:33:42;;;;;;;20.23;4.03;;;;;;;;;;4949588;28;20115;-74
2023/05/29 08:36:08;;;;;;;15.85;3.35;;;;;;;;;;4944504;28;20039;-73
2023/05/29 08:38:35;;;;;;;15.80;3.90;;;;;;;;;;4955749;28;21212;-74
2023/05/29 08:41:01;;;;;;;13.65;3.05;;;;;;;;;;4949652;28;20087;-74
2023/05/29 08:43:33;;;;;;;14.77;3.60;;;;;;;;;;4946334;28;20045;-73
2023/05/29 08:46:03;;;;;;;17.27;3.25;;;;;;;;;;4943911;28;20027;-74
2023/05/29 08:48:30;;;;;;;21.02;3.72;;;;;;;;;;4943298;28;20053;-74
2023/05/29 08:50:57;;;;;;;13.65;3.15;;;;;;;;;;4943009;28;20032;-75
2023/05/29 08:53:24;;;;;;;14.07;3.03;;;;;;;;;;4945040;28;20066;-74
2023/05/29 08:55:52;;;;;;;19.50;3.30;;;;;;;;;;4942595;28;20028;-74
2023/05/29 08:58:18;;;;;;;22.00;3.60;;;;;;;;;;4948587;28;20093;-75
2023/05/29 09:00:48;;;;;;;25.02;3.88;;;;;;;;;;4963306;28;20019;-73
2023/05/29 09:03:14;;;;;;;16.75;3.50;;;;;;;;;;4958709;28;20035;-73
2023/05/29 09:05:41;;;;;;;23.90;4.57;;;;;;;;;;4945659;28;20047;-73
2023/05/29 09:08:11;;;;;;;19.13;3.00;;;;;;;;;;4946129;28;20254;-73
2023/05/29 09:10:39;;;;;;;15.60;3.25;;;;;;;;;;4940815;28;20034;-73
2023/05/29 09:13:05;;;;;;;16.63;3.50;;;;;;;;;;4941142;28;20090;-73
2023/05/29 09:15:31;;;;;;;17.75;3.40;;;;;;;;;;4942006;28;20042;-73
2023/05/29 09:17:58;;;;;;;20.70;3.45;;;;;;;;;;4942478;28;20023;-73
2023/05/29 09:20:25;;;;;;;20.88;3.45;;;;;;;;;;4943671;28;20378;-73
2023/05/29 09:22:54;;;;;;;24.50;4.50;;;;;;;;;;4940091;28;20034;-72
2023/05/29 09:25:24;;;;;;;22.35;4.68;;;;;;;;;;4937297;28;20032;-73
2023/05/29 09:28:00;;;;;;;24.17;4.22;;;;;;;;;;4945293;28;20020;-72
2023/05/29 09:30:38;;;;;;;22.13;3.92;;;;;;;;;;4956329;28;20445;-73
2023/05/29 09:33:05;;;;;;;16.98;3.65;;;;;;;;;;4937135;28;20431;-73
2023/05/29 09:35:42;;;;;;;21.00;4.03;;;;;;;;;;4942613;28;20173;-73
2023/05/29 09:38:09;;;;;;;21.65;3.30;;;;;;;;;;4939354;28;20059;-73
2023/05/29 09:40:39;;;;;;;16.58;3.80;;;;;;;;;;4945629;28;20039;-72
2023/05/29 09:43:19;;;;;;;15.48;3.53;;;;;;;;;;4945830;28;20031;-73
2023/05/29 09:45:46;;;;;;;17.08;3.80;;;;;;;;;;4950809;28;20027;-73
2023/05/29 09:48:18;;;;;;;24.52;3.95;;;;;;;;;;5077243;27;1266405;-73
2023/05/29 09:50:47;;;;;;;19.17;3.80;;;;;;;;;;5099571;28;20373;-74
2023/05/29 09:53:27;;;;;;;15.55;3.55;;;;;;;;;;5097630;28;20454;-74
2023/05/29 09:55:54;;;;;;;23.20;3.90;;;;;;;;;;5101838;28;20024;-73
2023/05/29 09:58:20;;;;;;;21.45;3.15;;;;;;;;;;5094791;28;20463;-74
2023/05/29 10:00:48;;;;;;;23.27;4.15;;;;;;;;;;5096950;28;20043;-74
2023/05/29 10:03:14;;;;;;;21.02;3.92;;;;;;;;;;5097347;28;20039;-74
2023/05/29 10:05:40;;;;;;;14.40;3.38;;;;;;;;;;5092560;28;20047;-74
2023/05/29 10:08:13;;;;;;;16.95;3.58;;;;;;;;;;5098673;28;20102;-74
2023/05/29 10:10:41;;;;;;;21.05;3.75;;;;;;;;;;5103372;28;20453;-74
2023/05/29 10:13:09;;;;;;;14.95;3.67;;;;;;;;;;5086425;28;20036;-74
2023/05/29 10:15:36;;;;;;;18.23;3.38;;;;;;;;;;5087314;28;20059;-73
2023/05/29 10:18:14;;;;;;;15.90;4.70;;;;;;;;;;5098331;28;20121;-74
2023/05/29 10:20:43;;;;;;;15.70;3.70;;;;;;;;;;5098440;28;20034;-74
2023/05/29 10:23:09;;;;;;;16.23;3.45;;;;;;;;;;5089547;28;20020;-72
2023/05/29 10:25:36;;;;;;;16.27;4.07;;;;;;;;;;5092117;28;20031;-73
2023/05/29 10:28:03;;;;;;;16.33;3.97;;;;;;;;;;5100498;28;20143;-74
2023/05/29 10:30:40;;;;;;;15.85;3.80;;;;;;;;;;5090653;28;20388;-74
2023/05/29 10:33:09;;;;;;;15.82;3.30;;;;;;;;;;5106667;28;20480;-74
2023/05/29 10:35:47;;;;;;;15.70;3.83;;;;;;;;;;5093906;28;20024;-74
2023/05/29 10:38:15;;;;;;;19.15;3.60;;;;;;;;;;5095902;28;20063;-75
2023/05/29 10:40:41;;;;;;;20.30;3.47;;;;;;;;;;5103180;28;20028;-75
2023/05/29 10:43:10;;;;;;;18.58;4.10;;;;;;;;;;5094707;28;20528;-74
2023/05/29 10:45:36;;;;;;;21.67;3.88;;;;;;;;;;5099260;28;20024;-73
2023/05/29 10:48:08;;;;;;;11.98;3.22;;;;;;;;;;5101565;28;20051;-73
2023/05/29 10:50:43;;;;;;;15.13;3.65;;;;;;;;;;5100369;28;20036;-72
2023/05/29 10:53:10;;;;;;;14.50;3.10;;;;;;;;;;5087247;28;20028;-72
2023/05/29 10:55:40;;;;;;;20.58;4.60;;;;;;;;;;5092370;28;20066;-72
2023/05/29 10:58:25;;;;;;;16.30;3.40;;;;;;;;;;5100300;28;20032;-74
2023/05/29 11:00:53;;;;;;;20.05;4.05;;;;;;;;;;5079436;28;20047;-73
2023/05/29 11:03:22;;;;;;;16.17;3.63;;;;;;;;;;5085528;28;20020;-74
2023/05/29 11:05:58;;;;;;;14.27;3.30;;;;;;;;;;5073839;28;20385;-73
2023/05/29 11:08:35;;;;;;;14.98;3.50;;;;;;;;;;5091652;28;20051;-74
2023/05/29 11:11:01;;;;;;;18.17;4.70;;;;;;;;;;5086834;28;20077;-74
2023/05/29 11:13:34;;;;;;;18.85;4.95;;;;;;;;;;5090068;28;20027;-75
2023/05/29 11:16:18;;;;;;;23.52;3.60;;;;;;;;;;5078365;28;20027;-74
2023/05/29 11:18:48;;;;;;;14.93;2.83;;;;;;;;;;5080197;28;20085;-75
2023/05/29 11:21:24;;;;;;;17.08;4.68;;;;;;;;;;5074841;28;20662;-73
2023/05/29 11:23:54;;;;;;;13.82;4.07;;;;;;;;;;5094745;28;20050;-74
2023/05/29 11:26:20;;;;;;;15.65;3.38;;;;;;;;;;5090831;28;20032;-74
2023/05/29 11:28:47;;;;;;;13.10;2.95;;;;;;;;;;5085720;28;20064;-73
2023/05/29 11:31:13;;;;;;;18.73;4.97;;;;;;;;;;5086920;28;20026;-73
2023/05/29 11:33:43;;;;;;;13.15;3.17;;;;;;;;;;5089736;28;20436;-73
2023/05/29 11:36:10;;;;;;;14.15;2.95;;;;;;;;;;5090081;28;20510;-74
2023/05/29 11:38:36;;;;;;;20.35;5.85;;;;;;;;;;5085422;28;20501;-73
2023/05/29 11:41:03;;;;;;;20.83;3.78;;;;;;;;;;5088418;28;20024;-74
2023/05/29 11:43:29;;;;;;;15.63;2.88;;;;;;;;;;5091868;28;20119;-74
2023/05/29 11:45:55;;;;;;;16.85;3.47;;;;;;;;;;5085304;28;20021;-74
2023/05/29 11:48:21;;;;;;;12.77;2.78;;;;;;;;;;5086232;28;20051;-74
2023/05/29 11:50:47;;;;;;;15.52;3.75;;;;;;;;;;5083303;28;20031;-75
2023/05/29 11:53:13;;;;;;;15.88;3.67;;;;;;;;;;5080314;28;20024;-76
2023/05/29 11:55:39;;;;;;;15.98;5.55;;;;;;;;;;5086921;28;20358;-75
2023/05/29 11:58:05;;;;;;;14.70;3.50;;;;;;;;;;5085309;28;20056;-73
2023/05/29 12:00:40;;;;;;;15.18;3.38;;;;;;;;;;5088116;28;20071;-73
2023/05/29 12:03:07;;;;;;;14.63;3.25;;;;;;;;;;5080899;28;20055;-74
2023/05/29 12:05:46;;;;;;;15.15;3.28;;;;;;;;;;5088063;28;20032;-73
2023/05/29 12:08:12;;;;;;;16.27;2.85;;;;;;;;;;5090980;28;20040;-73
2023/05/29 12:10:47;;;;;;;17.58;3.75;;;;;;;;;;5084967;28;20535;-73
2023/05/29 12:13:14;;;;;;;16.92;3.17;;;;;;;;;;5084726;28;20035;-73
2023/05/29 12:15:40;;;;;;;16.33;2.95;;;;;;;;;;5090857;28;20028;-73
2023/05/29 12:18:06;;;;;;;12.55;3.15;;;;;;;;;;5091284;28;20481;-73
2023/05/29 12:20:32;;;;;;;15.10;3.10;;;;;;;;;;5090581;28;20107;-74
2023/05/29 12:23:02;;;;;;;10.55;2.25;;;;;;;;;;5084091;28;20032;-74
2023/05/29 12:25:28;;;;;;;12.93;3.50;;;;;;;;;;5083304;28;20035;-74
2023/05/29 12:27:57;;;;;;;16.95;4.47;;;;;;;;;;5090130;28;20044;-74
2023/05/29 12:30:23;;;;;;;13.45;3.90;;;;;;;;;;5089641;28;20112;-74
2023/05/29 12:32:53;;;;;;;10.23;2.45;;;;;;;;;;5093168;28;20520;-74
2023/05/29 12:35:19;;;;;;;13.73;3.30;;;;;;;;;;5079943;28;20355;-73
2023/05/29 12:37:46;;;;;;;12.32;3.00;;;;;;;;;;5077796;28;20032;-75
2023/05/29 12:40:16;;;;;;;17.83;3.67;;;;;;;;;;5085083;28;20028;-74
2023/05/29 12:42:42;;;;;;;13.02;2.65;;;;;;;;;;5080966;28;20029;-74
2023/05/29 12:45:09;;;;;;;13.70;2.58;;;;;;;;;;5087290;28;20028;-75
2023/05/29 12:47:36;;;;;;;10.88;3.10;;;;;;;;;;5091011;28;20089;-75
2023/05/29 12:50:06;;;;;;;12.40;2.80;;;;;;;;;;5085495;28;20036;-74
2023/05/29 12:52:32;;;;;;;14.30;2.80;;;;;;;;;;5077035;28;20032;-75
2023/05/29 12:54:58;;;;;;;14.30;2.85;;;;;;;;;;5087855;28;20020;-76
2023/05/29 12:57:24;;;;;;;12.55;3.40;;;;;;;;;;5074143;28;20051;-74
2023/05/29 12:59:50;;;;;;;9.68;2.92;;;;;;;;;;5083549;28;20032;-74
2023/05/29 13:02:16;;;;;;;14.27;2.85;;;;;;;;;;5079273;28;20093;-75
2023/05/29 13:04:42;;;;;;;18.35;3.00;;;;;;;;;;5084931;28;20028;-73
2023/05/29 13:07:08;;;;;;;15.57;3.22;;;;;;;;;;5081693;28;20299;-74
2023/05/29 13:09:34;;;;;;;12.93;2.58;;;;;;;;;;5084194;28;20140;-74
2023/05/29 13:12:01;;;;;;;14.73;2.97;;;;;;;;;;5085770;28;20048;-74
2023/05/29 13:14:27;;;;;;;14.55;2.88;;;;;;;;;;5069954;28;20033;-75
2023/05/29 13:16:53;;;;;;;21.65;3.80;;;;;;;;;;5082538;28;20047;-75
2023/05/29 13:19:19;;;;;;;14.63;2.72;;;;;;;;;;5074160;28;20359;-73
2023/05/29 13:21:48;;;;;;;14.05;3.13;;;;;;;;;;5081195;28;20040;-74
2023/05/29 13:24:14;;;;;;;13.55;2.35;;;;;;;;;;5084637;28;20021;-75
2023/05/29 13:26:40;;;;;;;15.75;3.42;;;;;;;;;;5089534;28;20123;-73
2023/05/29 13:29:06;;;;;;;16.27;3.95;;;;;;;;;;5089195;28;20055;-74
2023/05/29 13:31:32;;;;;;;19.60;6.88;;;;;;;;;;5081299;28;20478;-74
2023/05/29 13:33:58;;;;;;;12.65;2.60;;;;;;;;;;5081902;28;20083;-74
2023/05/29 13:36:24;;;;;;;15.82;2.72;;;;;;;;;;5073449;28;20170;-74
2023/05/29 13:38:50;;;;;;;13.10;2.95;;;;;;;;;;5091250;28;20039;-73
2023/05/29 13:41:16;;;;;;;11.25;2.53;;;;;;;;;;5073149;28;20044;-74
2023/05/29 13:43:42;;;;;;;12.02;2.33;;;;;;;;;;5073940;28;20039;-74
2023/05/29 13:46:08;;;;;;;12.50;2.67;;;;;;;;;;5081098;28;20040;-74
2023/05/29 13:48:34;;;;;;;9.80;2.60;;;;;;;;;;5084387;28;20113;-73
2023/05/29 13:51:00;;;;;;;11.70;2.58;;;;;;;;;;5083471;28;20029;-73
2023/05/29 13:53:26;;;;;;;11.30;2.55;;;;;;;;;;5081264;28;20119;-74
2023/05/29 13:55:52;;;;;;;11.40;2.85;;;;;;;;;;5089336;28;20511;-73
2023/05/29 13:58:18;;;;;;;14.60;2.50;;;;;;;;;;5086110;28;20037;-75
2023/05/29 14:00:46;;;;;;;11.35;4.32;;;;;;;;;;5072765;28;20473;-74
2023/05/29 14:03:12;;;;;;;17.75;2.88;;;;;;;;;;5096551;28;20040;-74
2023/05/29 14:05:38;;;;;;;10.57;2.47;;;;;;;;;;5088232;28;20124;-74
2023/05/29 14:08:04;;;;;;;16.40;2.60;;;;;;;;;;5078126;28;20057;-74
2023/05/29 14:10:30;;;;;;;18.10;2.47;;;;;;;;;;5092898;28;20032;-75
2023/05/29 14:12:56;;;;;;;11.50;3.25;;;;;;;;;;5079217;28;20052;-75
2023/05/29 14:15:22;;;;;;;12.13;2.45;;;;;;;;;;5088447;28;20032;-75
2023/05/29 14:17:48;;;;;;;13.80;2.90;;;;;;;;;;5071114;28;20430;-74
2023/05/29 14:20:14;;;;;;;17.23;3.08;;;;;;;;;;5070236;28;20024;-74
2023/05/29 14:22:40;;;;;;;16.00;2.85;;;;;;;;;;5090163;28;20369;-74
2023/05/29 14:25:06;;;;;;;13.38;2.38;;;;;;;;;;5085139;28;20051;-75
2023/05/29 14:27:32;;;;;;;12.40;2.50;;;;;;;;;;5088129;28;20051;-74
2023/05/29 14:29:59;;;;;;;8.73;2.15;;;;;;;;;;5086200;28;20040;-73